sensor_id;sensor_type;location;lat;lon;timestamp;pressure;altitude;pressure_sealevel;temperature;humidity
84795;BME280;75026;49.184;16.564;2023-12-20T00:00:15;98484.72;;;20.25;61.54
84795;BME280;75026;49.184;16.564;2023-12-20T00:03:36;98492.66;;;20.27;61.50
84795;BME280;75026;49.184;16.564;2023-12-20T00:06:47;98484.84;;;20.22;61.65
84795;BME280;75026;49.184;16.564;2023-12-20T00:09:48;98483.84;;;20.28;61.46
84795;BME280;75026;49.184;16.564;2023-12-20T00:12:49;98468.16;;;20.31;61.67
84795;BME280;75026;49.184;16.564;2023-12-20T00:15:49;98472.41;;;20.36;61.45
84795;BME280;75026;49.184;16.564;2023-12-20T00:18:50;98465.00;;;20.42;61.27
84795;BME280;75026;49.184;16.564;2023-12-20T00:21:51;98469.16;;;20.50;61.14
84795;BME280;75026;49.184;16.564;2023-12-20T00:24:52;98471.06;;;20.53;61.06
84795;BME280;75026;49.184;16.564;2023-12-20T00:27:52;98462.13;;;20.58;60.97
84795;BME280;75026;49.184;16.564;2023-12-20T00:30:53;98463.56;;;20.63;61.03
84795;BME280;75026;49.184;16.564;2023-12-20T00:33:54;98448.22;;;20.67;60.81
84795;BME280;75026;49.184;16.564;2023-12-20T00:36:55;98437.69;;;20.71;60.78
84795;BME280;75026;49.184;16.564;2023-12-20T00:39:55;98434.00;;;20.74;60.82
84795;BME280;75026;49.184;16.564;2023-12-20T00:42:56;98420.66;;;20.78;60.70
84795;BME280;75026;49.184;16.564;2023-12-20T00:45:57;98427.03;;;20.79;60.78
84795;BME280;75026;49.184;16.564;2023-12-20T00:48:58;98429.81;;;20.79;60.98
84795;BME280;75026;49.184;16.564;2023-12-20T00:51:58;98432.06;;;20.84;60.83
84795;BME280;75026;49.184;16.564;2023-12-20T00:54:59;98431.72;;;20.82;61.10
84795;BME280;75026;49.184;16.564;2023-12-20T00:58:00;98424.13;;;20.82;60.97
84795;BME280;75026;49.184;16.564;2023-12-20T01:01:01;98426.13;;;20.82;60.97
84795;BME280;75026;49.184;16.564;2023-12-20T01:04:01;98423.69;;;20.84;60.80
84795;BME280;75026;49.184;16.564;2023-12-20T01:07:02;98416.19;;;20.81;60.97
84795;BME280;75026;49.184;16.564;2023-12-20T01:10:06;98409.69;;;20.84;60.83
84795;BME280;75026;49.184;16.564;2023-12-20T01:13:07;98415.72;;;20.82;60.89
84795;BME280;75026;49.184;16.564;2023-12-20T01:16:10;98403.09;;;20.78;60.99
84795;BME280;75026;49.184;16.564;2023-12-20T01:19:12;98419.09;;;20.77;61.12
84795;BME280;75026;49.184;16.564;2023-12-20T01:22:13;98411.97;;;20.76;61.08
84795;BME280;75026;49.184;16.564;2023-12-20T01:25:14;98392.94;;;20.71;61.18
84795;BME280;75026;49.184;16.564;2023-12-20T01:28:15;98404.47;;;20.73;61.38
84795;BME280;75026;49.184;16.564;2023-12-20T01:31:16;98396.63;;;20.68;61.29
84795;BME280;75026;49.184;16.564;2023-12-20T01:34:17;98386.22;;;20.69;61.34
84795;BME280;75026;49.184;16.564;2023-12-20T01:37:18;98385.13;;;20.66;61.08
84795;BME280;75026;49.184;16.564;2023-12-20T01:40:19;98392.28;;;20.67;61.28
84795;BME280;75026;49.184;16.564;2023-12-20T01:43:20;98374.84;;;20.63;61.22
84795;BME280;75026;49.184;16.564;2023-12-20T01:46:21;98379.66;;;20.63;61.23
84795;BME280;75026;49.184;16.564;2023-12-20T01:49:22;98371.72;;;20.61;61.21
84795;BME280;75026;49.184;16.564;2023-12-20T01:52:23;98369.84;;;20.58;61.27
84795;BME280;75026;49.184;16.564;2023-12-20T01:55:30;98361.94;;;20.31;62.14
84795;BME280;75026;49.184;16.564;2023-12-20T01:58:46;98341.34;;;20.50;61.51
84795;BME280;75026;49.184;16.564;2023-12-20T02:01:48;98352.94;;;20.49;61.72
84795;BME280;75026;49.184;16.564;2023-12-20T02:04:48;98348.25;;;20.46;61.77
84795;BME280;75026;49.184;16.564;2023-12-20T02:07:52;98357.09;;;20.44;61.94
84795;BME280;75026;49.184;16.564;2023-12-20T02:10:53;98344.81;;;20.42;61.76
84795;BME280;75026;49.184;16.564;2023-12-20T02:13:54;98339.56;;;20.44;61.70
84795;BME280;75026;49.184;16.564;2023-12-20T02:16:55;98342.91;;;20.39;61.77
84795;BME280;75026;49.184;16.564;2023-12-20T02:19:56;98338.25;;;20.36;61.70
84795;BME280;75026;49.184;16.564;2023-12-20T02:22:56;98338.25;;;20.36;61.90
84795;BME280;75026;49.184;16.564;2023-12-20T02:25:57;98325.94;;;20.33;61.92
84795;BME280;75026;49.184;16.564;2023-12-20T02:29:01;98338.38;;;20.32;61.94
84795;BME280;75026;49.184;16.564;2023-12-20T02:32:02;98326.34;;;20.09;62.46
84795;BME280;75026;49.184;16.564;2023-12-20T02:35:03;98320.94;;;20.28;62.03
84795;BME280;75026;49.184;16.564;2023-12-20T02:38:05;98319.81;;;20.25;62.12
84795;BME280;75026;49.184;16.564;2023-12-20T02:41:06;98322.63;;;20.25;62.06
84795;BME280;75026;49.184;16.564;2023-12-20T02:44:07;98341.84;;;20.23;62.31
84795;BME280;75026;49.184;16.564;2023-12-20T02:47:07;98340.53;;;20.15;62.49
84795;BME280;75026;49.184;16.564;2023-12-20T02:50:08;98336.06;;;20.18;62.21
84795;BME280;75026;49.184;16.564;2023-12-20T02:53:08;98324.09;;;20.17;62.27
84795;BME280;75026;49.184;16.564;2023-12-20T02:56:10;98328.09;;;20.16;62.03
84795;BME280;75026;49.184;16.564;2023-12-20T02:59:13;98322.97;;;20.15;62.20
84795;BME280;75026;49.184;16.564;2023-12-20T03:02:14;98331.94;;;20.09;62.27
84795;BME280;75026;49.184;16.564;2023-12-20T03:05:15;98341.09;;;20.10;62.37
84795;BME280;75026;49.184;16.564;2023-12-20T03:08:16;98311.13;;;20.10;62.18
84795;BME280;75026;49.184;16.564;2023-12-20T03:11:17;98330.81;;;20.07;62.25
84795;BME280;75026;49.184;16.564;2023-12-20T03:14:17;98301.31;;;20.06;62.24
84795;BME280;75026;49.184;16.564;2023-12-20T03:17:18;98309.03;;;20.02;62.48
84795;BME280;75026;49.184;16.564;2023-12-20T03:20:20;98280.75;;;20.00;62.36
84795;BME280;75026;49.184;16.564;2023-12-20T03:23:20;98267.69;;;19.97;62.51
84795;BME280;75026;49.184;16.564;2023-12-20T03:26:21;98326.69;;;19.99;62.36
84795;BME280;75026;49.184;16.564;2023-12-20T03:29:23;98320.13;;;19.93;62.48
84795;BME280;75026;49.184;16.564;2023-12-20T03:32:24;98306.03;;;19.96;62.31
84795;BME280;75026;49.184;16.564;2023-12-20T03:35:24;98312.63;;;19.90;62.43
84795;BME280;75026;49.184;16.564;2023-12-20T03:38:25;98277.56;;;19.89;62.45
84795;BME280;75026;49.184;16.564;2023-12-20T03:41:26;98293.53;;;19.88;62.51
84795;BME280;75026;49.184;16.564;2023-12-20T03:44:27;98298.22;;;19.91;62.16
84795;BME280;75026;49.184;16.564;2023-12-20T03:47:27;98291.97;;;19.87;62.60
84795;BME280;75026;49.184;16.564;2023-12-20T03:50:28;98310.50;;;19.94;62.40
84795;BME280;75026;49.184;16.564;2023-12-20T03:53:29;98314.09;;;19.94;62.40
84795;BME280;75026;49.184;16.564;2023-12-20T03:56:30;98320.22;;;20.02;62.19
84795;BME280;75026;49.184;16.564;2023-12-20T03:59:35;98322.97;;;20.15;61.98
84795;BME280;75026;49.184;16.564;2023-12-20T04:02:37;98301.81;;;20.26;61.70
84795;BME280;75026;49.184;16.564;2023-12-20T04:05:39;98280.75;;;20.34;61.47
84795;BME280;75026;49.184;16.564;2023-12-20T04:08:40;98306.13;;;20.40;61.75
84795;BME280;75026;49.184;16.564;2023-12-20T04:11:41;98296.16;;;20.52;61.47
84795;BME280;75026;49.184;16.564;2023-12-20T04:14:41;98290.56;;;20.52;61.47
84795;BME280;75026;49.184;16.564;2023-12-20T04:17:42;98281.44;;;20.61;61.28
84795;BME280;75026;49.184;16.564;2023-12-20T04:20:43;98252.72;;;20.60;61.57
84795;BME280;75026;49.184;16.564;2023-12-20T04:23:46;98318.00;;;20.66;61.33
84795;BME280;75026;49.184;16.564;2023-12-20T04:26:47;98317.66;;;20.64;61.45
84795;BME280;75026;49.184;16.564;2023-12-20T04:29:48;98308.38;;;20.67;61.25
84795;BME280;75026;49.184;16.564;2023-12-20T04:32:48;98298.75;;;20.68;61.36
84795;BME280;75026;49.184;16.564;2023-12-20T04:35:49;98298.94;;;20.74;61.26
84795;BME280;75026;49.184;16.564;2023-12-20T04:38:50;98296.47;;;20.76;61.25
84795;BME280;75026;49.184;16.564;2023-12-20T04:41:50;98286.84;;;20.77;61.20
84795;BME280;75026;49.184;16.564;2023-12-20T04:44:51;98284.19;;;20.73;61.37
84795;BME280;75026;49.184;16.564;2023-12-20T04:47:52;98276.13;;;20.75;61.29
84795;BME280;75026;49.184;16.564;2023-12-20T04:50:54;98295.25;;;20.77;61.35
84795;BME280;75026;49.184;16.564;2023-12-20T04:53:54;98303.31;;;20.75;61.27
84795;BME280;75026;49.184;16.564;2023-12-20T04:56:55;98295.03;;;20.71;61.26
84795;BME280;75026;49.184;16.564;2023-12-20T04:59:56;98304.34;;;20.68;61.28
84795;BME280;75026;49.184;16.564;2023-12-20T05:02:57;98313.97;;;20.67;61.31
84795;BME280;75026;49.184;16.564;2023-12-20T05:05:57;98304.34;;;20.68;61.34
84795;BME280;75026;49.184;16.564;2023-12-20T05:08:58;98302.91;;;20.64;61.38
84795;BME280;75026;49.184;16.564;2023-12-20T05:11:59;98293.63;;;20.67;61.30
84795;BME280;75026;49.184;16.564;2023-12-20T05:15:01;98289.06;;;20.60;61.57
84795;BME280;75026;49.184;16.564;2023-12-20T05:18:01;98279.56;;;20.57;61.50
84795;BME280;75026;49.184;16.564;2023-12-20T05:21:03;98278.00;;;20.56;61.48
84795;BME280;75026;49.184;16.564;2023-12-20T05:24:04;98280.94;;;20.53;61.58
84795;BME280;75026;49.184;16.564;2023-12-20T05:27:05;98284.19;;;20.51;61.57
84795;BME280;75026;49.184;16.564;2023-12-20T05:30:06;98288.31;;;20.47;61.61
84795;BME280;75026;49.184;16.564;2023-12-20T05:33:07;98291.56;;;20.45;61.67
84795;BME280;75026;49.184;16.564;2023-12-20T05:36:07;98299.28;;;20.41;61.83
84795;BME280;75026;49.184;16.564;2023-12-20T05:39:11;98295.13;;;20.46;61.77
84795;BME280;75026;49.184;16.564;2023-12-20T05:42:12;98285.31;;;20.41;61.71
84795;BME280;75026;49.184;16.564;2023-12-20T05:45:14;98288.88;;;20.42;61.71
84795;BME280;75026;49.184;16.564;2023-12-20T05:48:15;98287.13;;;20.35;61.85
84795;BME280;75026;49.184;16.564;2023-12-20T05:51:16;98287.00;;;20.39;61.76
84795;BME280;75026;49.184;16.564;2023-12-20T05:54:16;98283.13;;;20.36;61.73
84795;BME280;75026;49.184;16.564;2023-12-20T05:57:17;98281.09;;;20.37;61.75
84795;BME280;75026;49.184;16.564;2023-12-20T06:00:18;98277.53;;;20.36;61.67
84795;BME280;75026;49.184;16.564;2023-12-20T06:03:19;98282.78;;;20.34;61.73
84795;BME280;75026;49.184;16.564;2023-12-20T06:06:19;98286.47;;;20.31;61.78
84795;BME280;75026;49.184;16.564;2023-12-20T06:09:20;98294.41;;;20.32;61.86
84795;BME280;75026;49.184;16.564;2023-12-20T06:12:21;98290.19;;;20.28;61.92
84795;BME280;75026;49.184;16.564;2023-12-20T06:15:22;98290.50;;;20.30;61.76
84795;BME280;75026;49.184;16.564;2023-12-20T06:18:23;98296.09;;;20.30;61.91
84795;BME280;75026;49.184;16.564;2023-12-20T06:21:23;98302.81;;;20.32;61.78
84795;BME280;75026;49.184;16.564;2023-12-20T06:24:24;98302.16;;;20.28;61.96
84795;BME280;75026;49.184;16.564;2023-12-20T06:27:28;98303.38;;;20.27;61.93
84795;BME280;75026;49.184;16.564;2023-12-20T06:30:29;98307.41;;;20.26;61.93
84795;BME280;75026;49.184;16.564;2023-12-20T06:33:30;98302.72;;;20.23;62.07
84795;BME280;75026;49.184;16.564;2023-12-20T06:36:31;98309.53;;;20.22;62.10
84795;BME280;75026;49.184;16.564;2023-12-20T06:39:32;98310.19;;;20.26;61.95
84795;BME280;75026;49.184;16.564;2023-12-20T06:42:34;98307.53;;;20.23;62.08
84795;BME280;75026;49.184;16.564;2023-12-20T06:45:35;98307.66;;;20.19;61.98
84795;BME280;75026;49.184;16.564;2023-12-20T06:48:35;98312.34;;;20.22;62.18
84795;BME280;75026;49.184;16.564;2023-12-20T06:51:36;98303.25;;;20.31;61.86
84795;BME280;75026;49.184;16.564;2023-12-20T06:54:37;98286.16;;;20.29;61.64
84795;BME280;75026;49.184;16.564;2023-12-20T06:57:37;98294.66;;;20.25;61.92
84795;BME280;75026;49.184;16.564;2023-12-20T07:00:38;98292.19;;;20.27;61.70
84795;BME280;75026;49.184;16.564;2023-12-20T07:03:39;98297.00;;;20.27;61.58
84795;BME280;75026;49.184;16.564;2023-12-20T07:06:42;98298.69;;;20.24;62.05
84795;BME280;75026;49.184;16.564;2023-12-20T07:09:43;98305.34;;;20.40;61.54
84795;BME280;75026;49.184;16.564;2023-12-20T07:12:44;98324.44;;;20.41;61.58
84795;BME280;75026;49.184;16.564;2023-12-20T07:15:45;98317.31;;;20.40;61.78
84795;BME280;75026;49.184;16.564;2023-12-20T07:18:46;98324.91;;;20.40;61.79
84795;BME280;75026;49.184;16.564;2023-12-20T07:21:48;98333.84;;;20.47;61.77
84795;BME280;75026;49.184;16.564;2023-12-20T07:24:51;98332.16;;;20.50;61.54
84795;BME280;75026;49.184;16.564;2023-12-20T07:27:56;98339.66;;;20.53;61.46
84795;BME280;75026;49.184;16.564;2023-12-20T07:30:56;98334.75;;;20.44;61.83
84795;BME280;75026;49.184;16.564;2023-12-20T07:33:58;98340.44;;;20.53;61.56
84795;BME280;75026;49.184;16.564;2023-12-20T07:36:58;98342.19;;;20.60;61.56
84795;BME280;75026;49.184;16.564;2023-12-20T07:40:16;98354.41;;;20.53;61.61
84795;BME280;75026;49.184;16.564;2023-12-20T07:43:17;98352.94;;;20.62;61.41
84795;BME280;75026;49.184;16.564;2023-12-20T07:46:20;98349.69;;;20.63;60.96
84795;BME280;75026;49.184;16.564;2023-12-20T07:49:23;98353.78;;;20.24;60.35
84795;BME280;75026;49.184;16.564;2023-12-20T07:52:24;98352.97;;;19.89;60.23
84795;BME280;75026;49.184;16.564;2023-12-20T07:55:24;98361.41;;;20.23;60.16
84795;BME280;75026;49.184;16.564;2023-12-20T07:58:25;98365.97;;;20.43;60.06
84795;BME280;75026;49.184;16.564;2023-12-20T08:01:26;98367.81;;;20.46;60.12
84795;BME280;75026;49.184;16.564;2023-12-20T08:04:27;98366.50;;;20.50;60.18
84795;BME280;75026;49.184;16.564;2023-12-20T08:10:46;98371.66;;;20.52;60.38
84795;BME280;75026;49.184;16.564;2023-12-20T08:14:20;98369.72;;;20.49;60.63
84795;BME280;75026;49.184;16.564;2023-12-20T08:17:21;98369.25;;;20.63;60.32
84795;BME280;75026;49.184;16.564;2023-12-20T08:20:23;98378.00;;;20.65;60.38
84795;BME280;75026;49.184;16.564;2023-12-20T08:23:24;98369.44;;;20.69;60.45
84795;BME280;75026;49.184;16.564;2023-12-20T08:26:25;98365.09;;;20.68;60.45
84795;BME280;75026;49.184;16.564;2023-12-20T08:29:26;98363.53;;;20.67;60.70
84795;BME280;75026;49.184;16.564;2023-12-20T08:32:26;98375.84;;;20.69;60.73
84795;BME280;75026;49.184;16.564;2023-12-20T08:35:27;98372.91;;;20.73;60.51
84795;BME280;75026;49.184;16.564;2023-12-20T08:38:28;98380.06;;;20.74;60.54
84795;BME280;75026;49.184;16.564;2023-12-20T08:41:29;98380.06;;;20.74;60.65
84795;BME280;75026;49.184;16.564;2023-12-20T08:44:29;98381.63;;;20.75;60.62
84795;BME280;75026;49.184;16.564;2023-12-20T08:47:30;98395.16;;;20.76;60.54
84795;BME280;75026;49.184;16.564;2023-12-20T08:50:31;98393.28;;;20.73;60.44
84795;BME280;75026;49.184;16.564;2023-12-20T08:53:32;98395.81;;;20.80;60.27
84795;BME280;75026;49.184;16.564;2023-12-20T08:56:32;98392.44;;;20.86;60.17
84795;BME280;75026;49.184;16.564;2023-12-20T08:59:33;98391.31;;;20.83;59.81
84795;BME280;75026;49.184;16.564;2023-12-20T09:02:34;98399.84;;;20.79;60.79
84795;BME280;75026;49.184;16.564;2023-12-20T09:05:36;98407.78;;;20.81;61.09
84795;BME280;75026;49.184;16.564;2023-12-20T09:08:37;98415.06;;;20.78;61.25
84795;BME280;75026;49.184;16.564;2023-12-20T09:11:38;98414.03;;;20.85;61.38
84795;BME280;75026;49.184;16.564;2023-12-20T09:14:39;98413.25;;;20.85;61.29
84795;BME280;75026;49.184;16.564;2023-12-20T09:17:39;98409.22;;;20.86;61.21
84795;BME280;75026;49.184;16.564;2023-12-20T09:20:41;98410.00;;;20.86;61.09
84795;BME280;75026;49.184;16.564;2023-12-20T09:23:43;98410.47;;;20.85;61.25
84795;BME280;75026;49.184;16.564;2023-12-20T09:26:43;98403.63;;;20.86;60.90
84795;BME280;75026;49.184;16.564;2023-12-20T09:29:44;98406.09;;;20.83;61.11
84795;BME280;75026;49.184;16.564;2023-12-20T09:32:45;98410.91;;;20.83;61.16
84795;BME280;75026;49.184;16.564;2023-12-20T09:35:46;98401.72;;;20.82;61.32
84795;BME280;75026;49.184;16.564;2023-12-20T09:38:47;98397.25;;;20.85;61.24
84795;BME280;75026;49.184;16.564;2023-12-20T09:42:01;98398.94;;;20.82;61.00
84795;BME280;75026;49.184;16.564;2023-12-20T09:45:02;98398.03;;;20.86;61.00
84795;BME280;75026;49.184;16.564;2023-12-20T09:48:04;98379.69;;;20.85;61.17
84795;BME280;75026;49.184;16.564;2023-12-20T09:51:05;98381.38;;;20.82;61.36
84795;BME280;75026;49.184;16.564;2023-12-20T09:54:06;98366.88;;;20.74;61.50
84795;BME280;75026;49.184;16.564;2023-12-20T09:57:08;98369.66;;;20.74;61.18
84795;BME280;75026;49.184;16.564;2023-12-20T10:00:10;98367.97;;;20.77;61.21
84795;BME280;75026;49.184;16.564;2023-12-20T10:03:12;98360.81;;;20.76;61.13
84795;BME280;75026;49.184;16.564;2023-12-20T10:06:15;98369.94;;;20.89;61.08
84795;BME280;75026;49.184;16.564;2023-12-20T10:09:15;98376.00;;;20.88;60.78
84795;BME280;75026;49.184;16.564;2023-12-20T10:12:16;98370.66;;;20.80;61.08
84795;BME280;75026;49.184;16.564;2023-12-20T10:15:17;98374.34;;;20.77;61.00
84795;BME280;75026;49.184;16.564;2023-12-20T10:18:18;98370.72;;;20.90;60.01
84795;BME280;75026;49.184;16.564;2023-12-20T10:21:22;98374.34;;;20.77;60.84
84795;BME280;75026;49.184;16.564;2023-12-20T10:24:23;98366.41;;;20.76;60.50
84795;BME280;75026;49.184;16.564;2023-12-20T10:27:24;98362.50;;;20.73;61.11
84795;BME280;75026;49.184;16.564;2023-12-20T10:30:27;98371.44;;;20.81;60.77
84795;BME280;75026;49.184;16.564;2023-12-20T10:33:30;98358.34;;;20.78;61.27
84795;BME280;75026;49.184;16.564;2023-12-20T10:36:33;98361.59;;;20.76;61.33
84795;BME280;75026;49.184;16.564;2023-12-20T10:39:38;98361.44;;;20.80;61.24
84795;BME280;75026;49.184;16.564;2023-12-20T10:42:42;98359.34;;;20.84;61.10
84795;BME280;75026;49.184;16.564;2023-12-20T10:45:44;98351.84;;;20.81;61.22
84795;BME280;75026;49.184;16.564;2023-12-20T10:48:46;98347.81;;;20.82;61.16
84795;BME280;75026;49.184;16.564;2023-12-20T10:51:48;98350.13;;;20.83;61.16
84795;BME280;75026;49.184;16.564;2023-12-20T10:54:53;98346.00;;;20.88;61.19
84795;BME280;75026;49.184;16.564;2023-12-20T10:58:02;98338.28;;;20.79;60.94
84795;BME280;75026;49.184;16.564;2023-12-20T11:01:08;98335.19;;;20.77;60.98
84795;BME280;75026;49.184;16.564;2023-12-20T11:04:15;98332.06;;;20.75;60.79
84795;BME280;75026;49.184;16.564;2023-12-20T11:07:33;98340.44;;;20.75;60.88
84795;BME280;75026;49.184;16.564;2023-12-20T11:10:59;98331.25;;;20.53;61.28
84795;BME280;75026;49.184;16.564;2023-12-20T11:14:13;98332.44;;;20.65;61.05
84795;BME280;75026;49.184;16.564;2023-12-20T11:17:15;98324.50;;;20.63;61.13
84795;BME280;75026;49.184;16.564;2023-12-20T11:20:17;98324.63;;;20.60;61.09
84795;BME280;75026;49.184;16.564;2023-12-20T11:23:18;98320.72;;;20.57;61.13
84795;BME280;75026;49.184;16.564;2023-12-20T11:26:24;98314.03;;;20.54;61.34
84795;BME280;75026;49.184;16.564;2023-12-20T11:29:34;98323.78;;;20.50;61.48
84795;BME280;75026;49.184;16.564;2023-12-20T11:32:36;98317.06;;;20.47;61.39
84795;BME280;75026;49.184;16.564;2023-12-20T11:35:39;98309.78;;;20.50;61.22
84795;BME280;75026;49.184;16.564;2023-12-20T11:38:57;98306.25;;;20.37;61.45
84795;BME280;75026;49.184;16.564;2023-12-20T11:42:04;98311.72;;;20.40;61.65
84795;BME280;75026;49.184;16.564;2023-12-20T11:45:18;98304.44;;;20.43;61.43
84795;BME280;75026;49.184;16.564;2023-12-20T11:48:22;98300.84;;;20.42;61.45
84795;BME280;75026;49.184;16.564;2023-12-20T11:51:23;98298.84;;;20.43;61.19
84795;BME280;75026;49.184;16.564;2023-12-20T11:54:24;98290.91;;;20.41;61.41
84795;BME280;75026;49.184;16.564;2023-12-20T11:57:25;98286.88;;;20.42;61.33
84795;BME280;75026;49.184;16.564;2023-12-20T12:00:26;98280.75;;;20.34;61.70
84795;BME280;75026;49.184;16.564;2023-12-20T12:03:26;98277.06;;;20.38;61.50
84795;BME280;75026;49.184;16.564;2023-12-20T12:06:27;98280.97;;;20.40;61.51
84795;BME280;75026;49.184;16.564;2023-12-20T12:09:28;98282.09;;;20.43;61.29
84795;BME280;75026;49.184;16.564;2023-12-20T12:12:29;98269.56;;;20.34;61.50
84795;BME280;75026;49.184;16.564;2023-12-20T12:15:30;98274.13;;;20.41;61.37
84795;BME280;75026;49.184;16.564;2023-12-20T12:18:31;98272.25;;;20.38;61.40
84795;BME280;75026;49.184;16.564;2023-12-20T12:21:32;98283.13;;;20.36;61.45
84795;BME280;75026;49.184;16.564;2023-12-20T12:24:33;98286.09;;;20.42;61.34
84795;BME280;75026;49.184;16.564;2023-12-20T12:27:34;98291.81;;;20.38;61.33
84795;BME280;75026;49.184;16.564;2023-12-20T12:30:34;98289.47;;;20.37;61.42
84795;BME280;75026;49.184;16.564;2023-12-20T12:33:35;98293.63;;;20.32;61.45
84795;BME280;75026;49.184;16.564;2023-12-20T12:36:36;98302.22;;;20.38;61.46
84795;BME280;75026;49.184;16.564;2023-12-20T12:39:36;98297.41;;;20.38;61.34
84795;BME280;75026;49.184;16.564;2023-12-20T12:42:37;98279.19;;;20.33;61.29
84795;BME280;75026;49.184;16.564;2023-12-20T12:45:38;98284.00;;;20.33;61.44
84795;BME280;75026;49.184;16.564;2023-12-20T12:48:39;98271.59;;;20.34;61.35
84795;BME280;75026;49.184;16.564;2023-12-20T12:51:40;98268.47;;;20.32;61.35
84795;BME280;75026;49.184;16.564;2023-12-20T12:54:41;98272.06;;;20.32;61.58
84795;BME280;75026;49.184;16.564;2023-12-20T12:57:43;98270.81;;;20.33;61.54
84795;BME280;75026;49.184;16.564;2023-12-20T13:00:43;98264.91;;;20.31;61.52
84795;BME280;75026;49.184;16.564;2023-12-20T13:03:44;98270.50;;;20.31;61.39
84795;BME280;75026;49.184;16.564;2023-12-20T13:06:45;98261.00;;;20.29;61.48
84795;BME280;75026;49.184;16.564;2023-12-20T13:09:47;98257.75;;;20.30;61.53
84795;BME280;75026;49.184;16.564;2023-12-20T13:12:48;98269.25;;;20.32;61.38
84795;BME280;75026;49.184;16.564;2023-12-20T13:15:49;98264.09;;;20.31;61.57
84795;BME280;75026;49.184;16.564;2023-12-20T13:18:53;98259.31;;;20.31;61.40
84795;BME280;75026;49.184;16.564;2023-12-20T13:21:54;98259.31;;;20.31;61.31
84795;BME280;75026;49.184;16.564;2023-12-20T13:24:54;98258.84;;;20.33;61.56
84795;BME280;75026;49.184;16.564;2023-12-20T13:27:55;98266.47;;;20.32;61.37
84795;BME280;75026;49.184;16.564;2023-12-20T13:30:56;98264.91;;;20.31;61.30
84795;BME280;75026;49.184;16.564;2023-12-20T13:33:57;98267.25;;;20.33;61.30
84795;BME280;75026;49.184;16.564;2023-12-20T13:36:58;98273.16;;;20.35;61.37
84795;BME280;75026;49.184;16.564;2023-12-20T13:39:59;98269.91;;;20.37;61.30
84795;BME280;75026;49.184;16.564;2023-12-20T13:42:59;98270.03;;;20.33;61.32
84795;BME280;75026;49.184;16.564;2023-12-20T13:46:00;98277.97;;;20.34;61.26
84795;BME280;75026;49.184;16.564;2023-12-20T13:49:01;98270.50;;;20.31;61.34
84795;BME280;75026;49.184;16.564;2023-12-20T13:52:02;98271.16;;;20.36;61.14
84795;BME280;75026;49.184;16.564;2023-12-20T13:55:04;98271.16;;;20.36;61.23
84795;BME280;75026;49.184;16.564;2023-12-20T13:58:08;98258.72;;;20.37;61.26
84795;BME280;75026;49.184;16.564;2023-12-20T14:01:10;98256.25;;;20.39;61.03
84795;BME280;75026;49.184;16.564;2023-12-20T14:04:12;98263.41;;;20.40;61.24
84795;BME280;75026;49.184;16.564;2023-12-20T14:07:12;98252.66;;;20.38;61.11
84795;BME280;75026;49.184;16.564;2023-12-20T14:10:14;98257.31;;;20.32;61.31
84795;BME280;75026;49.184;16.564;2023-12-20T14:13:14;98252.66;;;20.38;61.21
84795;BME280;75026;49.184;16.564;2023-12-20T14:16:15;98259.03;;;20.39;61.13
84795;BME280;75026;49.184;16.564;2023-12-20T14:19:17;98249.56;;;20.36;61.07
84795;BME280;75026;49.184;16.564;2023-12-20T14:22:18;98249.56;;;20.36;61.00
84795;BME280;75026;49.184;16.564;2023-12-20T14:25:19;98247.84;;;20.39;61.19
84795;BME280;75026;49.184;16.564;2023-12-20T14:28:19;98257.50;;;20.38;61.13
84795;BME280;75026;49.184;16.564;2023-12-20T14:31:20;98248.78;;;20.36;61.19
84795;BME280;75026;49.184;16.564;2023-12-20T14:34:22;98256.84;;;20.33;61.10
84795;BME280;75026;49.184;16.564;2023-12-20T14:37:24;98258.38;;;20.34;61.31
84795;BME280;75026;49.184;16.564;2023-12-20T14:40:26;98258.38;;;20.34;61.24
84795;BME280;75026;49.184;16.564;2023-12-20T14:43:26;98251.25;;;20.33;61.10
84795;BME280;75026;49.184;16.564;2023-12-20T14:46:27;98259.63;;;20.33;61.27
84795;BME280;75026;49.184;16.564;2023-12-20T14:49:28;98269.56;;;20.34;61.13
84795;BME280;75026;49.184;16.564;2023-12-20T14:52:30;98275.03;;;20.38;60.96
84795;BME280;75026;49.184;16.564;2023-12-20T14:55:30;98280.31;;;20.36;61.04
84795;BME280;75026;49.184;16.564;2023-12-20T14:58:31;98285.56;;;20.34;61.12
84795;BME280;75026;49.184;16.564;2023-12-20T15:01:32;98291.50;;;20.36;61.00
84795;BME280;75026;49.184;16.564;2023-12-20T15:04:33;98298.19;;;20.39;60.97
84795;BME280;75026;49.184;16.564;2023-12-20T15:07:33;98299.41;;;20.38;61.04
84795;BME280;75026;49.184;16.564;2023-12-20T15:10:35;98305.78;;;20.38;60.99
84795;BME280;75026;49.184;16.564;2023-12-20T15:13:36;98304.09;;;20.41;61.01
84795;BME280;75026;49.184;16.564;2023-12-20T15:16:37;98302.09;;;20.41;60.95
84795;BME280;75026;49.184;16.564;2023-12-20T15:19:37;98294.59;;;20.38;61.02
84795;BME280;75026;49.184;16.564;2023-12-20T15:22:38;98296.63;;;20.38;61.09
84795;BME280;75026;49.184;16.564;2023-12-20T15:25:40;98298.97;;;20.39;61.10
84795;BME280;75026;49.184;16.564;2023-12-20T15:28:41;98301.31;;;20.41;60.89
84795;BME280;75026;49.184;16.564;2023-12-20T15:31:46;98298.19;;;20.39;60.95
84795;BME280;75026;49.184;16.564;2023-12-20T15:34:47;98300.66;;;20.37;61.00
84795;BME280;75026;49.184;16.564;2023-12-20T15:37:47;98303.91;;;20.35;61.02
84795;BME280;75026;49.184;16.564;2023-12-20T15:40:48;98303.78;;;20.39;60.85
84795;BME280;75026;49.184;16.564;2023-12-20T15:43:49;98301.91;;;20.36;60.85
84795;BME280;75026;49.184;16.564;2023-12-20T15:46:51;98296.97;;;20.40;60.82
84795;BME280;75026;49.184;16.564;2023-12-20T15:49:51;98297.88;;;20.37;60.91
84795;BME280;75026;49.184;16.564;2023-12-20T15:52:52;98305.66;;;20.42;60.82